sensor_id;sensor_type;location;lat;lon;timestamp;P1;durP1;ratioP1;P2;durP2;ratioP2
18612;SDS011;9436;52.152;21.032;2022-12-31T00:01:43;37.40;;;27.77;;
18612;SDS011;9436;52.152;21.032;2022-12-31T00:04:11;37.57;;;27.87;;
18612;SDS011;9436;52.152;21.032;2022-12-31T00:06:38;37.87;;;28.47;;
18612;SDS011;9436;52.152;21.032;2022-12-31T00:09:06;38.23;;;27.40;;
18612;SDS011;9436;52.152;21.032;2022-12-31T00:11:33;39.93;;;28.07;;
18612;SDS011;9436;52.152;21.032;2022-12-31T00:14:01;39.83;;;28.73;;
18612;SDS011;9436;52.152;21.032;2022-12-31T00:16:29;37.27;;;27.97;;
18612;SDS011;9436;52.152;21.032;2022-12-31T00:18:57;38.53;;;27.37;;
18612;SDS011;9436;52.152;21.032;2022-12-31T00:21:27;38.53;;;28.27;;
18612;SDS011;9436;52.152;21.032;2022-12-31T00:23:55;38.80;;;27.27;;
18612;SDS011;9436;52.152;21.032;2022-12-31T00:26:23;38.03;;;28.13;;
18612;SDS011;9436;52.152;21.032;2022-12-31T00:28:51;40.07;;;28.57;;
18612;SDS011;9436;52.152;21.032;2022-12-31T00:31:20;40.70;;;28.90;;
18612;SDS011;9436;52.152;21.032;2022-12-31T00:33:49;39.23;;;27.53;;
18612;SDS011;9436;52.152;21.032;2022-12-31T00:36:17;37.40;;;27.90;;
18612;SDS011;9436;52.152;21.032;2022-12-31T00:38:47;37.53;;;27.47;;
18612;SDS011;9436;52.152;21.032;2022-12-31T00:41:16;37.73;;;27.23;;
18612;SDS011;9436;52.152;21.032;2022-12-31T00:43:43;37.50;;;27.10;;
18612;SDS011;9436;52.152;21.032;2022-12-31T00:46:11;37.03;;;25.90;;
18612;SDS011;9436;52.152;21.032;2022-12-31T00:48:38;35.33;;;25.63;;
18612;SDS011;9436;52.152;21.032;2022-12-31T00:51:05;34.33;;;25.77;;
18612;SDS011;9436;52.152;21.032;2022-12-31T00:53:34;35.97;;;25.80;;
18612;SDS011;9436;52.152;21.032;2022-12-31T00:56:04;36.73;;;27.33;;
18612;SDS011;9436;52.152;21.032;2022-12-31T00:58:32;34.40;;;25.47;;
18612;SDS011;9436;52.152;21.032;2022-12-31T01:01:06;36.73;;;26.50;;
18612;SDS011;9436;52.152;21.032;2022-12-31T01:03:33;37.07;;;24.87;;
18612;SDS011;9436;52.152;21.032;2022-12-31T01:06:00;34.17;;;25.70;;
18612;SDS011;9436;52.152;21.032;2022-12-31T01:08:27;36.77;;;26.17;;
18612;SDS011;9436;52.152;21.032;2022-12-31T01:10:54;38.93;;;25.83;;
18612;SDS011;9436;52.152;21.032;2022-12-31T01:13:24;33.93;;;25.17;;
18612;SDS011;9436;52.152;21.032;2022-12-31T01:15:51;35.27;;;25.30;;
18612;SDS011;9436;52.152;21.032;2022-12-31T01:18:17;34.97;;;24.73;;
18612;SDS011;9436;52.152;21.032;2022-12-31T01:20:44;34.40;;;24.43;;
18612;SDS011;9436;52.152;21.032;2022-12-31T01:23:11;33.97;;;24.00;;
18612;SDS011;9436;52.152;21.032;2022-12-31T01:25:38;35.37;;;24.60;;
18612;SDS011;9436;52.152;21.032;2022-12-31T01:28:07;31.60;;;23.27;;
18612;SDS011;9436;52.152;21.032;2022-12-31T01:30:38;32.03;;;24.27;;
18612;SDS011;9436;52.152;21.032;2022-12-31T01:33:05;32.97;;;23.23;;
18612;SDS011;9436;52.152;21.032;2022-12-31T01:35:32;31.80;;;22.87;;
18612;SDS011;9436;52.152;21.032;2022-12-31T01:38:00;31.87;;;22.77;;
18612;SDS011;9436;52.152;21.032;2022-12-31T01:40:26;31.57;;;23.70;;
18612;SDS011;9436;52.152;21.032;2022-12-31T01:42:54;32.23;;;23.17;;
18612;SDS011;9436;52.152;21.032;2022-12-31T01:45:21;32.47;;;23.87;;
18612;SDS011;9436;52.152;21.032;2022-12-31T01:47:50;30.60;;;23.03;;
18612;SDS011;9436;52.152;21.032;2022-12-31T01:50:21;31.30;;;22.40;;
18612;SDS011;9436;52.152;21.032;2022-12-31T01:52:53;28.53;;;21.60;;
18612;SDS011;9436;52.152;21.032;2022-12-31T01:55:24;31.33;;;22.47;;
18612;SDS011;9436;52.152;21.032;2022-12-31T01:57:56;32.10;;;21.77;;
18612;SDS011;9436;52.152;21.032;2022-12-31T02:00:25;29.30;;;22.90;;
18612;SDS011;9436;52.152;21.032;2022-12-31T02:02:53;27.73;;;21.07;;
18612;SDS011;9436;52.152;21.032;2022-12-31T02:05:21;27.20;;;20.23;;
18612;SDS011;9436;52.152;21.032;2022-12-31T02:07:51;26.60;;;21.07;;
18612;SDS011;9436;52.152;21.032;2022-12-31T02:10:19;25.13;;;19.80;;
18612;SDS011;9436;52.152;21.032;2022-12-31T02:12:46;26.70;;;19.93;;
18612;SDS011;9436;52.152;21.032;2022-12-31T02:15:13;25.77;;;19.57;;
18612;SDS011;9436;52.152;21.032;2022-12-31T02:17:44;24.53;;;18.47;;
18612;SDS011;9436;52.152;21.032;2022-12-31T02:22:56;23.27;;;18.23;;
18612;SDS011;9436;52.152;21.032;2022-12-31T02:25:33;22.90;;;17.53;;
18612;SDS011;9436;52.152;21.032;2022-12-31T02:28:14;21.90;;;17.43;;
18612;SDS011;9436;52.152;21.032;2022-12-31T02:30:55;21.70;;;16.40;;
18612;SDS011;9436;52.152;21.032;2022-12-31T02:33:27;22.40;;;16.47;;
18612;SDS011;9436;52.152;21.032;2022-12-31T02:35:58;24.53;;;17.40;;
18612;SDS011;9436;52.152;21.032;2022-12-31T02:38:28;22.23;;;16.73;;
18612;SDS011;9436;52.152;21.032;2022-12-31T02:40:59;22.43;;;16.43;;
18612;SDS011;9436;52.152;21.032;2022-12-31T02:43:27;21.20;;;15.87;;
18612;SDS011;9436;52.152;21.032;2022-12-31T02:45:57;20.20;;;15.83;;
18612;SDS011;9436;52.152;21.032;2022-12-31T02:48:36;19.00;;;14.60;;
18612;SDS011;9436;52.152;21.032;2022-12-31T02:51:12;24.00;;;16.93;;
18612;SDS011;9436;52.152;21.032;2022-12-31T02:54:02;18.93;;;14.97;;
18612;SDS011;9436;52.152;21.032;2022-12-31T02:56:38;19.80;;;14.70;;
18612;SDS011;9436;52.152;21.032;2022-12-31T02:59:14;19.47;;;14.40;;
18612;SDS011;9436;52.152;21.032;2022-12-31T03:01:50;17.50;;;14.03;;
18612;SDS011;9436;52.152;21.032;2022-12-31T03:04:23;18.90;;;14.50;;
18612;SDS011;9436;52.152;21.032;2022-12-31T03:06:53;19.83;;;15.03;;
18612;SDS011;9436;52.152;21.032;2022-12-31T03:09:20;19.97;;;15.73;;
18612;SDS011;9436;52.152;21.032;2022-12-31T03:11:47;18.13;;;14.17;;
18612;SDS011;9436;52.152;21.032;2022-12-31T03:14:16;18.27;;;13.90;;
18612;SDS011;9436;52.152;21.032;2022-12-31T03:16:42;17.70;;;14.10;;
18612;SDS011;9436;52.152;21.032;2022-12-31T03:19:11;18.30;;;14.03;;
18612;SDS011;9436;52.152;21.032;2022-12-31T03:21:52;17.60;;;13.30;;
18612;SDS011;9436;52.152;21.032;2022-12-31T03:24:21;17.83;;;13.57;;
18612;SDS011;9436;52.152;21.032;2022-12-31T03:26:50;17.63;;;14.00;;
18612;SDS011;9436;52.152;21.032;2022-12-31T03:29:18;18.83;;;13.70;;
18612;SDS011;9436;52.152;21.032;2022-12-31T03:31:46;18.57;;;14.67;;
18612;SDS011;9436;52.152;21.032;2022-12-31T03:34:14;16.77;;;13.73;;
18612;SDS011;9436;52.152;21.032;2022-12-31T03:36:41;17.60;;;13.90;;
18612;SDS011;9436;52.152;21.032;2022-12-31T03:39:08;16.47;;;13.97;;
18612;SDS011;9436;52.152;21.032;2022-12-31T03:41:34;18.27;;;13.80;;
18612;SDS011;9436;52.152;21.032;2022-12-31T03:44:01;17.40;;;13.60;;
18612;SDS011;9436;52.152;21.032;2022-12-31T03:46:28;18.00;;;13.87;;
18612;SDS011;9436;52.152;21.032;2022-12-31T03:48:55;18.20;;;14.33;;
18612;SDS011;9436;52.152;21.032;2022-12-31T03:51:24;16.97;;;13.30;;
18612;SDS011;9436;52.152;21.032;2022-12-31T03:53:50;17.47;;;13.33;;
18612;SDS011;9436;52.152;21.032;2022-12-31T03:56:17;17.63;;;13.83;;
18612;SDS011;9436;52.152;21.032;2022-12-31T03:58:44;16.53;;;12.87;;
18612;SDS011;9436;52.152;21.032;2022-12-31T04:01:11;16.90;;;12.83;;
18612;SDS011;9436;52.152;21.032;2022-12-31T04:03:37;16.60;;;12.87;;
18612;SDS011;9436;52.152;21.032;2022-12-31T04:06:04;18.73;;;14.13;;
18612;SDS011;9436;52.152;21.032;2022-12-31T04:08:32;16.70;;;12.90;;
18612;SDS011;9436;52.152;21.032;2022-12-31T04:10:59;17.00;;;13.07;;
18612;SDS011;9436;52.152;21.032;2022-12-31T04:13:26;16.50;;;12.90;;
18612;SDS011;9436;52.152;21.032;2022-12-31T04:15:52;16.70;;;12.83;;
18612;SDS011;9436;52.152;21.032;2022-12-31T04:18:20;15.33;;;12.57;;
18612;SDS011;9436;52.152;21.032;2022-12-31T04:20:47;15.97;;;12.77;;
18612;SDS011;9436;52.152;21.032;2022-12-31T04:23:14;15.67;;;12.63;;
18612;SDS011;9436;52.152;21.032;2022-12-31T04:25:42;16.33;;;12.83;;
18612;SDS011;9436;52.152;21.032;2022-12-31T04:28:08;16.10;;;12.90;;
18612;SDS011;9436;52.152;21.032;2022-12-31T04:30:35;15.60;;;12.67;;
18612;SDS011;9436;52.152;21.032;2022-12-31T04:33:02;15.17;;;12.57;;
18612;SDS011;9436;52.152;21.032;2022-12-31T04:35:29;16.17;;;12.47;;
18612;SDS011;9436;52.152;21.032;2022-12-31T04:37:56;15.23;;;12.10;;
18612;SDS011;9436;52.152;21.032;2022-12-31T04:40:22;15.27;;;12.80;;
18612;SDS011;9436;52.152;21.032;2022-12-31T04:42:50;16.33;;;13.10;;
18612;SDS011;9436;52.152;21.032;2022-12-31T04:45:17;14.33;;;12.13;;
18612;SDS011;9436;52.152;21.032;2022-12-31T04:47:44;16.63;;;12.70;;
18612;SDS011;9436;52.152;21.032;2022-12-31T04:50:12;14.93;;;12.87;;
18612;SDS011;9436;52.152;21.032;2022-12-31T04:52:38;15.77;;;12.23;;
18612;SDS011;9436;52.152;21.032;2022-12-31T04:55:05;16.10;;;12.90;;
18612;SDS011;9436;52.152;21.032;2022-12-31T04:57:33;16.70;;;12.23;;
18612;SDS011;9436;52.152;21.032;2022-12-31T05:00:02;14.97;;;12.30;;
18612;SDS011;9436;52.152;21.032;2022-12-31T05:02:30;15.00;;;12.17;;
18612;SDS011;9436;52.152;21.032;2022-12-31T05:04:56;15.87;;;11.93;;
18612;SDS011;9436;52.152;21.032;2022-12-31T05:07:23;17.53;;;12.80;;
18612;SDS011;9436;52.152;21.032;2022-12-31T05:09:51;16.63;;;12.43;;
18612;SDS011;9436;52.152;21.032;2022-12-31T05:12:18;17.33;;;13.17;;
18612;SDS011;9436;52.152;21.032;2022-12-31T05:14:45;17.20;;;12.83;;
18612;SDS011;9436;52.152;21.032;2022-12-31T05:17:13;16.33;;;12.77;;
18612;SDS011;9436;52.152;21.032;2022-12-31T05:19:39;15.67;;;13.17;;
18612;SDS011;9436;52.152;21.032;2022-12-31T05:22:06;16.57;;;13.50;;
18612;SDS011;9436;52.152;21.032;2022-12-31T05:24:35;17.80;;;13.63;;
18612;SDS011;9436;52.152;21.032;2022-12-31T05:27:03;15.97;;;12.60;;
18612;SDS011;9436;52.152;21.032;2022-12-31T05:29:31;15.57;;;12.90;;
18612;SDS011;9436;52.152;21.032;2022-12-31T05:31:58;18.33;;;13.70;;
18612;SDS011;9436;52.152;21.032;2022-12-31T05:34:26;16.60;;;13.33;;
18612;SDS011;9436;52.152;21.032;2022-12-31T05:36:53;17.20;;;12.97;;
18612;SDS011;9436;52.152;21.032;2022-12-31T05:39:20;16.03;;;13.47;;
18612;SDS011;9436;52.152;21.032;2022-12-31T05:41:47;16.73;;;13.23;;
18612;SDS011;9436;52.152;21.032;2022-12-31T05:44:13;17.23;;;13.20;;
18612;SDS011;9436;52.152;21.032;2022-12-31T05:46:40;17.57;;;13.10;;
18612;SDS011;9436;52.152;21.032;2022-12-31T05:49:07;16.63;;;13.23;;
18612;SDS011;9436;52.152;21.032;2022-12-31T05:51:35;16.73;;;13.40;;
18612;SDS011;9436;52.152;21.032;2022-12-31T05:54:02;17.07;;;13.20;;
18612;SDS011;9436;52.152;21.032;2022-12-31T05:56:29;17.40;;;13.77;;
18612;SDS011;9436;52.152;21.032;2022-12-31T05:58:56;18.20;;;14.00;;
18612;SDS011;9436;52.152;21.032;2022-12-31T06:01:22;18.03;;;14.57;;
18612;SDS011;9436;52.152;21.032;2022-12-31T06:03:49;17.57;;;14.53;;
18612;SDS011;9436;52.152;21.032;2022-12-31T06:06:16;17.77;;;14.13;;
18612;SDS011;9436;52.152;21.032;2022-12-31T06:08:44;16.80;;;13.53;;
18612;SDS011;9436;52.152;21.032;2022-12-31T06:11:14;18.87;;;13.30;;
18612;SDS011;9436;52.152;21.032;2022-12-31T06:13:41;18.17;;;14.13;;
18612;SDS011;9436;52.152;21.032;2022-12-31T06:16:08;18.70;;;14.23;;
18612;SDS011;9436;52.152;21.032;2022-12-31T06:18:36;18.67;;;14.43;;
18612;SDS011;9436;52.152;21.032;2022-12-31T06:21:04;19.17;;;13.70;;
18612;SDS011;9436;52.152;21.032;2022-12-31T06:23:33;18.03;;;13.90;;
18612;SDS011;9436;52.152;21.032;2022-12-31T06:26:03;16.40;;;13.63;;
18612;SDS011;9436;52.152;21.032;2022-12-31T06:28:33;19.37;;;13.67;;
18612;SDS011;9436;52.152;21.032;2022-12-31T06:31:00;16.97;;;13.67;;
18612;SDS011;9436;52.152;21.032;2022-12-31T06:33:28;15.87;;;12.80;;
18612;SDS011;9436;52.152;21.032;2022-12-31T06:35:55;16.07;;;13.47;;
18612;SDS011;9436;52.152;21.032;2022-12-31T06:38:24;14.87;;;12.13;;
18612;SDS011;9436;52.152;21.032;2022-12-31T06:40:52;16.70;;;12.83;;
18612;SDS011;9436;52.152;21.032;2022-12-31T06:43:21;17.87;;;12.13;;
18612;SDS011;9436;52.152;21.032;2022-12-31T06:45:47;14.97;;;12.03;;
18612;SDS011;9436;52.152;21.032;2022-12-31T06:48:14;16.67;;;12.33;;
18612;SDS011;9436;52.152;21.032;2022-12-31T06:50:41;16.33;;;12.53;;
18612;SDS011;9436;52.152;21.032;2022-12-31T06:53:08;16.97;;;12.80;;
18612;SDS011;9436;52.152;21.032;2022-12-31T06:55:36;17.93;;;12.97;;
18612;SDS011;9436;52.152;21.032;2022-12-31T06:58:03;15.97;;;12.93;;
18612;SDS011;9436;52.152;21.032;2022-12-31T07:00:32;22.17;;;13.10;;
18612;SDS011;9436;52.152;21.032;2022-12-31T07:05:44;19.53;;;12.33;;
18612;SDS011;9436;52.152;21.032;2022-12-31T07:08:17;16.70;;;12.53;;
18612;SDS011;9436;52.152;21.032;2022-12-31T07:10:58;15.77;;;11.83;;
18612;SDS011;9436;52.152;21.032;2022-12-31T07:13:36;15.47;;;12.10;;
18612;SDS011;9436;52.152;21.032;2022-12-31T07:16:18;16.23;;;12.10;;
18612;SDS011;9436;52.152;21.032;2022-12-31T07:18:56;16.40;;;12.23;;
18612;SDS011;9436;52.152;21.032;2022-12-31T07:21:34;18.47;;;11.80;;
18612;SDS011;9436;52.152;21.032;2022-12-31T07:24:04;13.20;;;10.90;;
18612;SDS011;9436;52.152;21.032;2022-12-31T07:26:37;15.93;;;12.23;;
18612;SDS011;9436;52.152;21.032;2022-12-31T07:29:15;13.77;;;11.50;;
18612;SDS011;9436;52.152;21.032;2022-12-31T07:31:54;17.33;;;11.60;;
18612;SDS011;9436;52.152;21.032;2022-12-31T07:34:32;12.77;;;10.87;;
18612;SDS011;9436;52.152;21.032;2022-12-31T07:37:09;14.97;;;11.37;;
18612;SDS011;9436;52.152;21.032;2022-12-31T07:39:44;14.73;;;11.70;;
18612;SDS011;9436;52.152;21.032;2022-12-31T07:42:19;13.80;;;11.37;;
18612;SDS011;9436;52.152;21.032;2022-12-31T07:44:53;13.23;;;11.03;;
18612;SDS011;9436;52.152;21.032;2022-12-31T07:47:27;13.07;;;10.20;;
18612;SDS011;9436;52.152;21.032;2022-12-31T07:49:55;13.23;;;10.13;;
18612;SDS011;9436;52.152;21.032;2022-12-31T07:52:23;11.73;;;10.30;;
18612;SDS011;9436;52.152;21.032;2022-12-31T07:54:50;12.67;;;9.70;;
18612;SDS011;9436;52.152;21.032;2022-12-31T07:57:17;12.23;;;10.00;;
18612;SDS011;9436;52.152;21.032;2022-12-31T07:59:50;12.63;;;10.13;;
18612;SDS011;9436;52.152;21.032;2022-12-31T08:02:32;13.70;;;10.37;;
18612;SDS011;9436;52.152;21.032;2022-12-31T08:05:20;13.53;;;9.80;;
18612;SDS011;9436;52.152;21.032;2022-12-31T08:07:54;13.53;;;10.30;;
18612;SDS011;9436;52.152;21.032;2022-12-31T08:10:28;11.53;;;9.57;;
18612;SDS011;9436;52.152;21.032;2022-12-31T08:13:02;11.70;;;10.10;;
18612;SDS011;9436;52.152;21.032;2022-12-31T08:15:33;12.20;;;9.60;;
18612;SDS011;9436;52.152;21.032;2022-12-31T08:18:04;13.53;;;10.37;;
18612;SDS011;9436;52.152;21.032;2022-12-31T08:20:32;12.13;;;9.90;;
18612;SDS011;9436;52.152;21.032;2022-12-31T08:23:06;11.47;;;9.33;;
18612;SDS011;9436;52.152;21.032;2022-12-31T08:25:55;11.70;;;9.40;;
18612;SDS011;9436;52.152;21.032;2022-12-31T08:28:42;11.43;;;9.33;;
18612;SDS011;9436;52.152;21.032;2022-12-31T08:31:19;11.07;;;9.23;;
18612;SDS011;9436;52.152;21.032;2022-12-31T08:33:51;11.87;;;9.53;;
18612;SDS011;9436;52.152;21.032;2022-12-31T08:36:24;11.20;;;9.30;;
18612;SDS011;9436;52.152;21.032;2022-12-31T08:38:59;11.20;;;9.20;;
18612;SDS011;9436;52.152;21.032;2022-12-31T08:41:30;10.80;;;9.03;;
18612;SDS011;9436;52.152;21.032;2022-12-31T08:44:08;12.33;;;9.73;;
18612;SDS011;9436;52.152;21.032;2022-12-31T08:46:45;11.93;;;8.97;;
18612;SDS011;9436;52.152;21.032;2022-12-31T08:49:24;9.73;;;8.73;;
18612;SDS011;9436;52.152;21.032;2022-12-31T08:51:54;12.03;;;8.57;;
18612;SDS011;9436;52.152;21.032;2022-12-31T08:54:21;10.87;;;8.77;;
18612;SDS011;9436;52.152;21.032;2022-12-31T08:56:50;10.43;;;8.87;;
18612;SDS011;9436;52.152;21.032;2022-12-31T08:59:26;10.80;;;8.57;;
18612;SDS011;9436;52.152;21.032;2022-12-31T09:02:07;10.03;;;8.40;;
18612;SDS011;9436;52.152;21.032;2022-12-31T09:04:58;10.93;;;8.47;;
18612;SDS011;9436;52.152;21.032;2022-12-31T09:07:32;9.50;;;8.23;;
18612;SDS011;9436;52.152;21.032;2022-12-31T09:10:05;9.87;;;8.07;;
18612;SDS011;9436;52.152;21.032;2022-12-31T09:12:43;9.77;;;8.27;;
18612;SDS011;9436;52.152;21.032;2022-12-31T09:15:18;10.10;;;8.27;;
18612;SDS011;9436;52.152;21.032;2022-12-31T09:17:51;9.10;;;8.17;;
18612;SDS011;9436;52.152;21.032;2022-12-31T09:20:22;10.27;;;8.00;;
18612;SDS011;9436;52.152;21.032;2022-12-31T09:22:51;8.97;;;7.93;;
18612;SDS011;9436;52.152;21.032;2022-12-31T09:25:20;9.27;;;7.40;;
18612;SDS011;9436;52.152;21.032;2022-12-31T09:27:52;9.43;;;7.67;;
18612;SDS011;9436;52.152;21.032;2022-12-31T09:30:30;8.77;;;7.07;;
18612;SDS011;9436;52.152;21.032;2022-12-31T09:33:08;8.10;;;7.20;;
18612;SDS011;9436;52.152;21.032;2022-12-31T09:35:44;8.27;;;6.90;;
18612;SDS011;9436;52.152;21.032;2022-12-31T09:38:17;8.50;;;7.40;;
18612;SDS011;9436;52.152;21.032;2022-12-31T09:40:54;8.83;;;6.97;;
18612;SDS011;9436;52.152;21.032;2022-12-31T09:52:06;8.00;;;6.73;;
18612;SDS011;9436;52.152;21.032;2022-12-31T09:54:43;8.73;;;6.60;;
18612;SDS011;9436;52.152;21.032;2022-12-31T09:57:20;7.47;;;6.63;;
18612;SDS011;9436;52.152;21.032;2022-12-31T09:59:57;8.63;;;7.10;;
18612;SDS011;9436;52.152;21.032;2022-12-31T10:02:39;8.00;;;6.87;;
18612;SDS011;9436;52.152;21.032;2022-12-31T10:05:23;10.40;;;6.90;;
18612;SDS011;9436;52.152;21.032;2022-12-31T10:08:08;8.90;;;6.83;;
18612;SDS011;9436;52.152;21.032;2022-12-31T10:10:48;7.83;;;7.03;;
18612;SDS011;9436;52.152;21.032;2022-12-31T10:13:25;8.03;;;6.67;;
18612;SDS011;9436;52.152;21.032;2022-12-31T10:16:04;9.53;;;7.63;;
18612;SDS011;9436;52.152;21.032;2022-12-31T10:18:49;8.37;;;7.10;;
18612;SDS011;9436;52.152;21.032;2022-12-31T10:21:32;9.90;;;7.53;;
18612;SDS011;9436;52.152;21.032;2022-12-31T10:26:48;7.97;;;6.60;;
18612;SDS011;9436;52.152;21.032;2022-12-31T10:29:28;7.73;;;6.30;;
18612;SDS011;9436;52.152;21.032;2022-12-31T10:32:11;9.07;;;7.10;;
18612;SDS011;9436;52.152;21.032;2022-12-31T10:34:46;8.63;;;6.20;;
18612;SDS011;9436;52.152;21.032;2022-12-31T10:37:19;7.43;;;6.23;;
18612;SDS011;9436;52.152;21.032;2022-12-31T10:39:52;7.80;;;6.40;;
18612;SDS011;9436;52.152;21.032;2022-12-31T10:45:17;7.97;;;6.30;;
18612;SDS011;9436;52.152;21.032;2022-12-31T10:47:58;7.03;;;6.10;;
18612;SDS011;9436;52.152;21.032;2022-12-31T10:50:51;7.83;;;6.67;;
18612;SDS011;9436;52.152;21.032;2022-12-31T10:59:15;7.70;;;6.60;;
18612;SDS011;9436;52.152;21.032;2022-12-31T11:01:55;6.33;;;5.73;;
18612;SDS011;9436;52.152;21.032;2022-12-31T11:10:00;7.87;;;5.97;;
18612;SDS011;9436;52.152;21.032;2022-12-31T11:12:41;7.37;;;5.80;;
18612;SDS011;9436;52.152;21.032;2022-12-31T11:18:14;6.83;;;5.67;;
18612;SDS011;9436;52.152;21.032;2022-12-31T11:20:52;7.10;;;5.50;;
18612;SDS011;9436;52.152;21.032;2022-12-31T11:23:34;6.60;;;5.73;;
18612;SDS011;9436;52.152;21.032;2022-12-31T11:26:12;6.60;;;5.90;;
18612;SDS011;9436;52.152;21.032;2022-12-31T11:28:51;7.63;;;5.57;;
18612;SDS011;9436;52.152;21.032;2022-12-31T11:31:31;6.00;;;5.40;;
18612;SDS011;9436;52.152;21.032;2022-12-31T11:34:07;6.47;;;5.67;;
18612;SDS011;9436;52.152;21.032;2022-12-31T11:36:46;7.93;;;5.87;;
18612;SDS011;9436;52.152;21.032;2022-12-31T11:39:33;6.47;;;5.60;;
18612;SDS011;9436;52.152;21.032;2022-12-31T11:42:13;7.57;;;5.70;;
18612;SDS011;9436;52.152;21.032;2022-12-31T11:44:46;6.43;;;5.17;;
18612;SDS011;9436;52.152;21.032;2022-12-31T11:47:24;7.57;;;6.37;;
18612;SDS011;9436;52.152;21.032;2022-12-31T11:50:16;6.27;;;5.67;;
18612;SDS011;9436;52.152;21.032;2022-12-31T11:52:53;7.23;;;5.47;;
18612;SDS011;9436;52.152;21.032;2022-12-31T11:58:18;5.77;;;5.17;;
18612;SDS011;9436;52.152;21.032;2022-12-31T12:00:49;5.60;;;5.10;;
18612;SDS011;9436;52.152;21.032;2022-12-31T12:03:22;5.43;;;4.83;;
18612;SDS011;9436;52.152;21.032;2022-12-31T12:05:49;6.83;;;5.03;;
18612;SDS011;9436;52.152;21.032;2022-12-31T12:08:16;7.00;;;4.77;;
18612;SDS011;9436;52.152;21.032;2022-12-31T12:10:45;5.70;;;4.70;;
18612;SDS011;9436;52.152;21.032;2022-12-31T12:13:19;4.83;;;4.30;;
18612;SDS011;9436;52.152;21.032;2022-12-31T12:15:47;5.47;;;4.77;;
18612;SDS011;9436;52.152;21.032;2022-12-31T12:18:24;5.77;;;4.57;;
18612;SDS011;9436;52.152;21.032;2022-12-31T12:21:02;5.70;;;4.77;;
18612;SDS011;9436;52.152;21.032;2022-12-31T12:23:33;5.77;;;4.93;;
18612;SDS011;9436;52.152;21.032;2022-12-31T12:26:00;5.70;;;5.10;;
18612;SDS011;9436;52.152;21.032;2022-12-31T12:28:29;7.00;;;4.53;;
18612;SDS011;9436;52.152;21.032;2022-12-31T12:31:06;5.53;;;5.03;;
18612;SDS011;9436;52.152;21.032;2022-12-31T12:33:44;6.07;;;4.40;;
18612;SDS011;9436;52.152;21.032;2022-12-31T12:36:12;5.17;;;4.67;;
18612;SDS011;9436;52.152;21.032;2022-12-31T12:38:40;5.63;;;4.90;;
18612;SDS011;9436;52.152;21.032;2022-12-31T12:41:09;6.27;;;5.13;;
18612;SDS011;9436;52.152;21.032;2022-12-31T12:43:43;7.37;;;5.30;;
18612;SDS011;9436;52.152;21.032;2022-12-31T12:46:17;7.30;;;5.23;;
18612;SDS011;9436;52.152;21.032;2022-12-31T12:48:52;7.83;;;5.30;;
18612;SDS011;9436;52.152;21.032;2022-12-31T12:51:26;6.87;;;5.67;;
18612;SDS011;9436;52.152;21.032;2022-12-31T12:54:01;5.63;;;5.03;;
18612;SDS011;9436;52.152;21.032;2022-12-31T12:56:36;5.60;;;5.00;;
18612;SDS011;9436;52.152;21.032;2022-12-31T12:59:21;5.77;;;4.90;;
18612;SDS011;9436;52.152;21.032;2022-12-31T13:02:06;5.03;;;4.53;;
18612;SDS011;9436;52.152;21.032;2022-12-31T13:04:57;6.00;;;5.10;;
18612;SDS011;9436;52.152;21.032;2022-12-31T13:07:37;6.43;;;4.70;;
18612;SDS011;9436;52.152;21.032;2022-12-31T13:10:20;4.97;;;4.47;;
18612;SDS011;9436;52.152;21.032;2022-12-31T13:12:59;5.80;;;5.20;;
18612;SDS011;9436;52.152;21.032;2022-12-31T13:15:33;5.47;;;4.83;;
18612;SDS011;9436;52.152;21.032;2022-12-31T13:18:08;6.07;;;5.00;;
18612;SDS011;9436;52.152;21.032;2022-12-31T13:20:43;5.80;;;5.20;;
18612;SDS011;9436;52.152;21.032;2022-12-31T13:23:16;6.57;;;5.23;;
18612;SDS011;9436;52.152;21.032;2022-12-31T13:25:52;5.97;;;5.20;;
18612;SDS011;9436;52.152;21.032;2022-12-31T13:28:27;6.47;;;5.20;;
18612;SDS011;9436;52.152;21.032;2022-12-31T13:30:57;6.40;;;5.07;;
18612;SDS011;9436;52.152;21.032;2022-12-31T13:33:27;6.07;;;5.37;;
18612;SDS011;9436;52.152;21.032;2022-12-31T13:35:59;6.17;;;5.17;;
18612;SDS011;9436;52.152;21.032;2022-12-31T13:38:29;5.10;;;4.60;;
18612;SDS011;9436;52.152;21.032;2022-12-31T13:41:00;7.20;;;5.10;;
18612;SDS011;9436;52.152;21.032;2022-12-31T13:43:33;5.67;;;4.67;;
18612;SDS011;9436;52.152;21.032;2022-12-31T13:46:08;5.97;;;5.00;;
18612;SDS011;9436;52.152;21.032;2022-12-31T13:48:43;5.07;;;4.57;;
18612;SDS011;9436;52.152;21.032;2022-12-31T13:51:17;5.80;;;5.10;;
18612;SDS011;9436;52.152;21.032;2022-12-31T13:53:53;5.40;;;4.90;;
18612;SDS011;9436;52.152;21.032;2022-12-31T13:56:26;5.67;;;4.80;;
18612;SDS011;9436;52.152;21.032;2022-12-31T13:59:13;5.97;;;5.33;;
18612;SDS011;9436;52.152;21.032;2022-12-31T14:01:46;6.67;;;5.03;;
18612;SDS011;9436;52.152;21.032;2022-12-31T14:04:17;5.67;;;4.80;;
18612;SDS011;9436;52.152;21.032;2022-12-31T14:06:52;6.87;;;4.93;;
18612;SDS011;9436;52.152;21.032;2022-12-31T14:09:22;5.93;;;5.33;;
18612;SDS011;9436;52.152;21.032;2022-12-31T14:11:56;6.20;;;4.80;;
18612;SDS011;9436;52.152;21.032;2022-12-31T14:14:34;5.87;;;5.07;;
18612;SDS011;9436;52.152;21.032;2022-12-31T14:17:09;6.47;;;5.43;;
18612;SDS011;9436;52.152;21.032;2022-12-31T14:19:46;7.93;;;5.70;;
18612;SDS011;9436;52.152;21.032;2022-12-31T14:22:24;6.60;;;5.20;;
18612;SDS011;9436;52.152;21.032;2022-12-31T14:24:59;7.10;;;5.07;;
18612;SDS011;9436;52.152;21.032;2022-12-31T14:27:28;6.23;;;5.00;;
18612;SDS011;9436;52.152;21.032;2022-12-31T14:29:58;6.30;;;5.20;;
18612;SDS011;9436;52.152;21.032;2022-12-31T14:32:32;5.90;;;5.30;;
18612;SDS011;9436;52.152;21.032;2022-12-31T14:35:17;5.73;;;4.87;;
18612;SDS011;9436;52.152;21.032;2022-12-31T14:37:57;5.67;;;4.77;;
18612;SDS011;9436;52.152;21.032;2022-12-31T14:40:31;5.63;;;5.13;;
18612;SDS011;9436;52.152;21.032;2022-12-31T14:43:12;5.93;;;5.33;;
18612;SDS011;9436;52.152;21.032;2022-12-31T14:45:50;7.53;;;5.10;;
18612;SDS011;9436;52.152;21.032;2022-12-31T14:48:28;6.47;;;5.73;;
18612;SDS011;9436;52.152;21.032;2022-12-31T14:51:01;5.53;;;4.70;;
18612;SDS011;9436;52.152;21.032;2022-12-31T14:53:32;7.40;;;5.13;;
18612;SDS011;9436;52.152;21.032;2022-12-31T14:55:59;5.10;;;4.47;;
18612;SDS011;9436;52.152;21.032;2022-12-31T14:58:30;5.17;;;4.53;;
18612;SDS011;9436;52.152;21.032;2022-12-31T15:00:59;5.47;;;4.30;;
18612;SDS011;9436;52.152;21.032;2022-12-31T15:06:02;5.33;;;4.30;;
18612;SDS011;9436;52.152;21.032;2022-12-31T15:08:44;4.50;;;4.10;;
18612;SDS011;9436;52.152;21.032;2022-12-31T15:11:20;4.60;;;4.17;;
18612;SDS011;9436;52.152;21.032;2022-12-31T15:14:01;4.17;;;3.77;;
18612;SDS011;9436;52.152;21.032;2022-12-31T15:16:48;5.90;;;3.87;;
18612;SDS011;9436;52.152;21.032;2022-12-31T15:22:10;4.50;;;4.07;;
18612;SDS011;9436;52.152;21.032;2022-12-31T15:24:51;4.20;;;3.80;;
18612;SDS011;9436;52.152;21.032;2022-12-31T15:27:25;4.70;;;3.63;;
18612;SDS011;9436;52.152;21.032;2022-12-31T15:29:56;5.20;;;4.23;;
18612;SDS011;9436;52.152;21.032;2022-12-31T15:32:26;7.87;;;4.67;;
18612;SDS011;9436;52.152;21.032;2022-12-31T15:35:00;5.40;;;4.13;;
18612;SDS011;9436;52.152;21.032;2022-12-31T15:37:29;4.43;;;4.00;;
18612;SDS011;9436;52.152;21.032;2022-12-31T15:42:41;4.53;;;4.03;;
18612;SDS011;9436;52.152;21.032;2022-12-31T15:45:13;4.60;;;4.10;;
18612;SDS011;9436;52.152;21.032;2022-12-31T15:47:46;4.73;;;4.20;;